Zim Rio Grande — 9HNV9 — position and weather

sailwx.info

Track history (hours):
 
Tides and Currents Weather Stations Pressure Air Temp Water Temp Dewpoint Dewpoint Depression Visibility Wind Speed Wind Dir Waves Ship Positions

Zim Rio Grande

Last reported at 2014-Sep-13 18:25 UTC. Time now 2014-Sep-18 19:46 UTC.
Position N 37°00' W 009°23'.

Length 260 m; draft 12.7 m.

Type: Ship (hazmat cat A). MMSI: 249253000.

Date/timePositionNaut miles runAvg speedWind from/ knotsBaromVisibWave heightAir tempDewpointWater temp
2014-Sep-13 18:25N 37°00' W 009°23'1616.1
2014-Sep-13 17:24N 36°47' W 009°11'1415.9
2014-Sep-13 16:32N 36°41' W 008°56'1616.4
2014-Sep-13 15:33N 36°36' W 008°37'1716.2
2014-Sep-13 14:29N 36°31' W 008°16'1516.5
2014-Sep-13 13:33N 36°26' W 007°58'2016.5
2014-Sep-13 12:21N 36°20' W 007°35'1616.6
2014-Sep-13 11:22N 36°15' W 007°15'9014.9
2014-Sep-13 05:18N 36°00' W 005°25'22515.2
2014-Sep-12 14:32N 37°15' W 001°01'1716.9
2014-Sep-12 13:33N 37°26' W 000°45'1716.6
2014-Sep-12 12:33N 37°38' W 000°30'1717.0
2014-Sep-12 11:33N 37°52' W 000°18'1817.2
2014-Sep-12 10:30N 38°08' W 000°06'1616.7
2014-Sep-12 09:34N 38°21' E 000°04'2217.0
2014-Sep-12 08:15N 38°40' E 000°20'1217.1
2014-Sep-12 07:33N 38°50' E 000°26'1717.4
2014-Sep-12 06:33N 39°07' E 000°34'1717.5
2014-Sep-12 05:33N 39°23' E 000°41'1817.7
2014-Sep-12 04:33N 39°40' E 000°49'1817.6
2014-Sep-12 03:34N 39°57' E 000°56'1717.3
2014-Sep-12 02:33N 40°14' E 001°00'1717.1
2014-Sep-12 01:33N 40°31' E 001°04'1716.9
2014-Sep-12 00:33N 40°47' E 001°08'1616.2
2014-Sep-11 23:33N 41°03' E 001°12'2 2.2
2014-Sep-11 22:29N 41°06' E 001°13'0 0.0
2014-Sep-11 21:29N 41°06' E 001°13'0 0.0
2014-Sep-11 20:23N 41°06' E 001°13'0 0.0
2014-Sep-11 19:29N 41°06' E 001°13'0 0.0
2014-Sep-11 16:29N 41°06' E 001°13'0 0.0
2014-Sep-11 15:29N 41°06' E 001°13'0 0.0
2014-Sep-11 14:23N 41°06' E 001°13'0 0.0
2014-Sep-11 13:32N 41°06' E 001°13'1 0.3
2014-Sep-11 11:32N 41°05' E 001°13'8 7.9
2014-Sep-11 10:33N 41°05' E 001°23'1716.6
2014-Sep-11 09:33N 41°08' E 001°45'1716.5
2014-Sep-11 08:33N 41°11' E 002°07'1717.2
2014-Sep-11 07:33N 41°16' E 002°28'1817.7
2014-Sep-11 06:32N 41°22' E 002°51'1817.9
2014-Sep-11 05:33N 41°29' E 003°12'1918.6
2014-Sep-11 04:33N 41°38' E 003°33'1716.8
2014-Sep-11 03:33N 41°47' E 003°53'1817.9
2014-Sep-11 02:33N 41°55' E 004°14'1717.2
2014-Sep-11 01:33N 42°04' E 004°34'1716.7
2014-Sep-11 00:33N 42°12' E 004°54'1616.4
2014-Sep-10 23:33N 42°20' E 005°13'1716.8
2014-Sep-10 22:33N 42°29' E 005°33'1717.0
2014-Sep-10 21:33N 42°37' E 005°53'1817.7
2014-Sep-10 20:31N 42°46' E 006°14'1818.1
2014-Sep-10 19:33N 42°55' E 006°35'1918.4
2014-Sep-10 18:30N 43°07' E 006°56'1718.1
2014-Sep-10 17:33N 43°17' E 007°15'1817.9
2014-Sep-10 16:33N 43°28' E 007°34'1817.8
2014-Sep-10 15:32N 43°40' E 007°53'1818.1
2014-Sep-10 14:33N 43°51' E 008°12'1717.5
2014-Sep-10 13:33N 44°03' E 008°30'1716.7
2014-Sep-10 12:32N 44°14' E 008°48'1111.1
2014-Sep-10 11:33N 44°24' E 008°55'1 1.1
2014-Sep-10 10:32N 44°24' E 008°54'0 0.0
2014-Sep-10 09:33N 44°24' E 008°54'0 0.0
2014-Sep-10 08:33N 44°24' E 008°54'0 0.0
2014-Sep-10 07:32N 44°24' E 008°54'0 0.0
2014-Sep-10 06:32N 44°24' E 008°54'0 0.0
2014-Sep-10 05:32N 44°24' E 008°54'0 0.0
2014-Sep-10 04:32N 44°24' E 008°54'0 0.0
2014-Sep-10 03:32N 44°24' E 008°54'0 0.0
2014-Sep-10 02:14N 44°24' E 008°54'0 0.0
2014-Sep-10 01:29N 44°24' E 008°54'0 0.0
2014-Sep-10 00:32N 44°24' E 008°54'0 0.0
2014-Sep-09 23:32N 44°24' E 008°54'0 0.0
2014-Sep-09 22:32N 44°24' E 008°54'0 0.0
2014-Sep-09 21:32N 44°24' E 008°54'0 0.0
2014-Sep-09 20:32N 44°24' E 008°54'0 0.0
2014-Sep-09 19:32N 44°24' E 008°54'0 0.0
2014-Sep-09 18:32N 44°24' E 008°54'0 0.0
2014-Sep-09 17:32N 44°24' E 008°54'0 0.0
2014-Sep-09 16:32N 44°24' E 008°54'0 0.0
2014-Sep-09 15:32N 44°24' E 008°54'0 0.0
2014-Sep-09 14:32N 44°24' E 008°54'0 0.0
2014-Sep-09 13:32N 44°24' E 008°54'0 0.0
2014-Sep-09 12:32N 44°24' E 008°54'0 0.0
2014-Sep-09 11:32N 44°24' E 008°54'1 0.6
2014-Sep-09 10:34N 44°24' E 008°54'6 5.7
2014-Sep-09 09:33N 44°19' E 008°59'1413.9
2014-Sep-09 08:33N 44°06' E 009°06'1817.7
2014-Sep-09 07:33N 43°50' E 009°14'1717.5
2014-Sep-09 06:33N 43°33' E 009°22'1717.2
2014-Sep-09 05:33N 43°17' E 009°30'1817.8
2014-Sep-09 04:33N 43°00' E 009°38'1918.1
2014-Sep-09 03:30N 42°42' E 009°47'3917.3
2014-Sep-09 01:14N 42°08' E 010°14'1217.8
2014-Sep-09 00:33N 42°00' E 010°26'18217.6
2014-Sep-08 14:14N 39°58' E 013°24'1217.3
2014-Sep-08 13:32N 39°50' E 013°36'1717.4
2014-Sep-08 12:33N 39°38' E 013°52'48716.2
2014-Sep-07 06:33N 36°27' E 023°21'1717.4
2014-Sep-07 05:34N 36°44' E 023°26'1917.7
2014-Sep-07 04:30N 37°02' E 023°33'3417.6
2014-Sep-07 02:33N 37°35' E 023°42'1818.1
2014-Sep-07 01:33N 37°53' E 023°36'4 4.1
2014-Sep-07 00:29N 37°57' E 023°36'0 0.0
2014-Sep-06 23:29N 37°57' E 023°36'0 0.1
2014-Sep-06 22:23N 37°57' E 023°36'0 0.1
2014-Sep-06 21:29N 37°57' E 023°36'0 0.0
2014-Sep-06 20:23N 37°57' E 023°36'0 0.0
2014-Sep-06 19:29N 37°57' E 023°36'0 0.0
2014-Sep-06 17:23N 37°57' E 023°36'0 0.0
2014-Sep-06 16:23N 37°57' E 023°36'0 0.0
2014-Sep-06 15:29N 37°57' E 023°36'0 0.0
2014-Sep-06 14:29N 37°57' E 023°36'0 0.0
2014-Sep-06 12:11N 37°57' E 023°36'0 0.0
2014-Sep-06 10:32N 37°57' E 023°36'0 0.0
2014-Sep-06 09:17N 37°57' E 023°36'0 0.0
2014-Sep-06 08:11N 37°57' E 023°36'0 0.1
2014-Sep-06 07:17N 37°57' E 023°36'0 0.1
2014-Sep-06 06:29N 37°57' E 023°36'0 0.0
2014-Sep-06 05:23N 37°57' E 023°36'0 0.6
2014-Sep-06 04:32N 37°57' E 023°36'1010.1
2014-Sep-06 03:33N 37°48' E 023°41'1716.7
2014-Sep-06 02:32N 37°32' E 023°50'3517.1
2014-Sep-06 00:30N 36°59' E 024°06'1617.1
2014-Sep-05 23:33N 36°44' E 024°12'1716.8
2014-Sep-05 22:32N 36°31' E 024°26'1717.1
2014-Sep-05 21:33N 36°22' E 024°44'1616.4
2014-Sep-05 20:33N 36°14' E 025°01'1717.0
2014-Sep-05 19:33N 36°05' E 025°19'1717.3
2014-Sep-05 18:33N 35°56' E 025°37'1717.0
2014-Sep-05 17:33N 35°46' E 025°54'38816.7
2014-Sep-04 18:19N 33°21' E 033°11'1316.6
2014-Sep-04 17:34N 33°16' E 033°25'1616.5
2014-Sep-04 16:34N 33°10' E 033°43'1716.4
2014-Sep-04 15:33N 33°03' E 034°01'1716.7
2014-Sep-04 14:34N 32°60' E 034°20'1716.8
2014-Sep-04 13:34N 32°57' E 034°40'1716.5
2014-Sep-04 12:34N 32°52' E 034°59'4 1.2
2014-Sep-04 09:32N 32°49' E 035°01'0 0.0
2014-Sep-04 08:32N 32°49' E 035°01'0 0.0
2014-Sep-04 07:17N 32°49' E 035°01'0 0.0
2014-Sep-04 06:29N 32°49' E 035°01'  
Track history (hours):
 
Tides and Currents Weather Stations Pressure Air Temp Water Temp Dewpoint Dewpoint Depression Visibility Wind Speed Wind Dir Waves Ship Positions

Zim Rio Grande

Last reported at 2014-Sep-13 18:25 UTC. Time now 2014-Sep-18 19:46 UTC.
Position N 37°00' W 009°23'.

Length 260 m; draft 12.7 m.

Type: Ship (hazmat cat A). MMSI: 249253000.

Date/timePositionNaut miles runAvg speedWind from/ knotsBaromVisibWave heightAir tempDewpointWater temp
2014-Sep-13 18:25N 37°00' W 009°23'1616.1
2014-Sep-13 17:24N 36°47' W 009°11'1415.9
2014-Sep-13 16:32N 36°41' W 008°56'1616.4
2014-Sep-13 15:33N 36°36' W 008°37'1716.2
2014-Sep-13 14:29N 36°31' W 008°16'1516.5
2014-Sep-13 13:33N 36°26' W 007°58'2016.5
2014-Sep-13 12:21N 36°20' W 007°35'1616.6
2014-Sep-13 11:22N 36°15' W 007°15'9014.9
2014-Sep-13 05:18N 36°00' W 005°25'22515.2
2014-Sep-12 14:32N 37°15' W 001°01'1716.9
2014-Sep-12 13:33N 37°26' W 000°45'1716.6
2014-Sep-12 12:33N 37°38' W 000°30'1717.0
2014-Sep-12 11:33N 37°52' W 000°18'1817.2
2014-Sep-12 10:30N 38°08' W 000°06'1616.7
2014-Sep-12 09:34N 38°21' E 000°04'2217.0
2014-Sep-12 08:15N 38°40' E 000°20'1217.1
2014-Sep-12 07:33N 38°50' E 000°26'1717.4
2014-Sep-12 06:33N 39°07' E 000°34'1717.5
2014-Sep-12 05:33N 39°23' E 000°41'1817.7
2014-Sep-12 04:33N 39°40' E 000°49'1817.6
2014-Sep-12 03:34N 39°57' E 000°56'1717.3
2014-Sep-12 02:33N 40°14' E 001°00'1717.1
2014-Sep-12 01:33N 40°31' E 001°04'1716.9
2014-Sep-12 00:33N 40°47' E 001°08'1616.2
2014-Sep-11 23:33N 41°03' E 001°12'2 2.2
2014-Sep-11 22:29N 41°06' E 001°13'0 0.0
2014-Sep-11 21:29N 41°06' E 001°13'0 0.0
2014-Sep-11 20:23N 41°06' E 001°13'0 0.0
2014-Sep-11 19:29N 41°06' E 001°13'0 0.0
2014-Sep-11 16:29N 41°06' E 001°13'0 0.0
2014-Sep-11 15:29N 41°06' E 001°13'0 0.0
2014-Sep-11 14:23N 41°06' E 001°13'0 0.0
2014-Sep-11 13:32N 41°06' E 001°13'1 0.3
2014-Sep-11 11:32N 41°05' E 001°13'8 7.9
2014-Sep-11 10:33N 41°05' E 001°23'1716.6
2014-Sep-11 09:33N 41°08' E 001°45'1716.5
2014-Sep-11 08:33N 41°11' E 002°07'1717.2
2014-Sep-11 07:33N 41°16' E 002°28'1817.7
2014-Sep-11 06:32N 41°22' E 002°51'1817.9
2014-Sep-11 05:33N 41°29' E 003°12'1918.6
2014-Sep-11 04:33N 41°38' E 003°33'1716.8
2014-Sep-11 03:33N 41°47' E 003°53'1817.9
2014-Sep-11 02:33N 41°55' E 004°14'1717.2
2014-Sep-11 01:33N 42°04' E 004°34'1716.7
2014-Sep-11 00:33N 42°12' E 004°54'1616.4
2014-Sep-10 23:33N 42°20' E 005°13'1716.8
2014-Sep-10 22:33N 42°29' E 005°33'1717.0
2014-Sep-10 21:33N 42°37' E 005°53'1817.7
2014-Sep-10 20:31N 42°46' E 006°14'1818.1
2014-Sep-10 19:33N 42°55' E 006°35'1918.4
2014-Sep-10 18:30N 43°07' E 006°56'1718.1
2014-Sep-10 17:33N 43°17' E 007°15'1817.9
2014-Sep-10 16:33N 43°28' E 007°34'1817.8
2014-Sep-10 15:32N 43°40' E 007°53'1818.1
2014-Sep-10 14:33N 43°51' E 008°12'1717.5
2014-Sep-10 13:33N 44°03' E 008°30'1716.7
2014-Sep-10 12:32N 44°14' E 008°48'1111.1
2014-Sep-10 11:33N 44°24' E 008°55'1 1.1
2014-Sep-10 10:32N 44°24' E 008°54'0 0.0
2014-Sep-10 09:33N 44°24' E 008°54'0 0.0
2014-Sep-10 08:33N 44°24' E 008°54'0 0.0
2014-Sep-10 07:32N 44°24' E 008°54'0 0.0
2014-Sep-10 06:32N 44°24' E 008°54'0 0.0
2014-Sep-10 05:32N 44°24' E 008°54'0 0.0
2014-Sep-10 04:32N 44°24' E 008°54'0 0.0
2014-Sep-10 03:32N 44°24' E 008°54'0 0.0
2014-Sep-10 02:14N 44°24' E 008°54'0 0.0
2014-Sep-10 01:29N 44°24' E 008°54'0 0.0
2014-Sep-10 00:32N 44°24' E 008°54'0 0.0
2014-Sep-09 23:32N 44°24' E 008°54'0 0.0
2014-Sep-09 22:32N 44°24' E 008°54'0 0.0
2014-Sep-09 21:32N 44°24' E 008°54'0 0.0
2014-Sep-09 20:32N 44°24' E 008°54'0 0.0
2014-Sep-09 19:32N 44°24' E 008°54'0 0.0
2014-Sep-09 18:32N 44°24' E 008°54'0 0.0
2014-Sep-09 17:32N 44°24' E 008°54'0 0.0
2014-Sep-09 16:32N 44°24' E 008°54'0 0.0
2014-Sep-09 15:32N 44°24' E 008°54'0 0.0
2014-Sep-09 14:32N 44°24' E 008°54'0 0.0
2014-Sep-09 13:32N 44°24' E 008°54'0 0.0
2014-Sep-09 12:32N 44°24' E 008°54'0 0.0
2014-Sep-09 11:32N 44°24' E 008°54'1 0.6
2014-Sep-09 10:34N 44°24' E 008°54'6 5.7
2014-Sep-09 09:33N 44°19' E 008°59'1413.9
2014-Sep-09 08:33N 44°06' E 009°06'1817.7
2014-Sep-09 07:33N 43°50' E 009°14'1717.5
2014-Sep-09 06:33N 43°33' E 009°22'1717.2
2014-Sep-09 05:33N 43°17' E 009°30'1817.8
2014-Sep-09 04:33N 43°00' E 009°38'1918.1
2014-Sep-09 03:30N 42°42' E 009°47'3917.3
2014-Sep-09 01:14N 42°08' E 010°14'1217.8
2014-Sep-09 00:33N 42°00' E 010°26'18217.6
2014-Sep-08 14:14N 39°58' E 013°24'1217.3
2014-Sep-08 13:32N 39°50' E 013°36'1717.4
2014-Sep-08 12:33N 39°38' E 013°52'48716.2
2014-Sep-07 06:33N 36°27' E 023°21'1717.4
2014-Sep-07 05:34N 36°44' E 023°26'1917.7
2014-Sep-07 04:30N 37°02' E 023°33'3417.6
2014-Sep-07 02:33N 37°35' E 023°42'1818.1
2014-Sep-07 01:33N 37°53' E 023°36'4 4.1
2014-Sep-07 00:29N 37°57' E 023°36'0 0.0
2014-Sep-06 23:29N 37°57' E 023°36'0 0.1
2014-Sep-06 22:23N 37°57' E 023°36'0 0.1
2014-Sep-06 21:29N 37°57' E 023°36'0 0.0
2014-Sep-06 20:23N 37°57' E 023°36'0 0.0
2014-Sep-06 19:29N 37°57' E 023°36'0 0.0
2014-Sep-06 17:23N 37°57' E 023°36'0 0.0
2014-Sep-06 16:23N 37°57' E 023°36'0 0.0
2014-Sep-06 15:29N 37°57' E 023°36'0 0.0
2014-Sep-06 14:29N 37°57' E 023°36'0 0.0
2014-Sep-06 12:11N 37°57' E 023°36'0 0.0
2014-Sep-06 10:32N 37°57' E 023°36'0 0.0
2014-Sep-06 09:17N 37°57' E 023°36'0 0.0
2014-Sep-06 08:11N 37°57' E 023°36'0 0.1
2014-Sep-06 07:17N 37°57' E 023°36'0 0.1
2014-Sep-06 06:29N 37°57' E 023°36'0 0.0
2014-Sep-06 05:23N 37°57' E 023°36'0 0.6
2014-Sep-06 04:32N 37°57' E 023°36'1010.1
2014-Sep-06 03:33N 37°48' E 023°41'1716.7
2014-Sep-06 02:32N 37°32' E 023°50'3517.1
2014-Sep-06 00:30N 36°59' E 024°06'1617.1
2014-Sep-05 23:33N 36°44' E 024°12'1716.8
2014-Sep-05 22:32N 36°31' E 024°26'1717.1
2014-Sep-05 21:33N 36°22' E 024°44'1616.4
2014-Sep-05 20:33N 36°14' E 025°01'1717.0
2014-Sep-05 19:33N 36°05' E 025°19'1717.3
2014-Sep-05 18:33N 35°56' E 025°37'1717.0
2014-Sep-05 17:33N 35°46' E 025°54'38816.7
2014-Sep-04 18:19N 33°21' E 033°11'1316.6
2014-Sep-04 17:34N 33°16' E 033°25'1616.5
2014-Sep-04 16:34N 33°10' E 033°43'1716.4
2014-Sep-04 15:33N 33°03' E 034°01'1716.7
2014-Sep-04 14:34N 32°60' E 034°20'1716.8
2014-Sep-04 13:34N 32°57' E 034°40'1716.5
2014-Sep-04 12:34N 32°52' E 034°59'4 1.2
2014-Sep-04 09:32N 32°49' E 035°01'0 0.0
2014-Sep-04 08:32N 32°49' E 035°01'0 0.0
2014-Sep-04 07:17N 32°49' E 035°01'0 0.0
2014-Sep-04 06:29N 32°49' E 035°01'  

Dump ship's entire track history